KAEX/AEX METAR and TAF weather

Enter ICAO airport designator
Station Type Date Time Source
KAEX METAR 2021/07/28 20:53 UTC NOAA

KAEX 282053Z 11003KT 10SM CLR 34/24 A2997 RMK AO2 SLP151 T03390239 56014


Station Type Date Time Source
KAEX Decoded METAR 2021/07/28 20:53 UTC NOAA

ALEXANDRIA INTERNATIONAL AIRPORT, LA, United States (KAEX) 31-33N 092-56W 27M
Jul 28, 2021 - 04:53 PM EDT / 2021.07.28 2053 UTC
Wind: from the ESE (110 degrees) at 3 MPH (3 KT):0
Visibility: 10 mile(s):0
Sky conditions: clear
Temperature: 93.0 F (33.9 C)
Heat index: 104.5 F (40.3 C):1
Dew Point: 75.0 F (23.9 C)
Relative Humidity: 56%
Pressure (altimeter): 29.97 in. Hg (1014 hPa)
Pressure tendency: 0.04 inches (1.4 hPa) lower than three hours ago
ob: KAEX 282053Z 11003KT 10SM CLR 34/24 A2997 RMK AO2 SLP151 T03390239 56014
cycle: 21

Station Type Date Time Source
KAEX TAF 2021/07/28 18:30 UTC NOAA

TAF KAEX 281728Z 2818/2918 VRB04KT P6SM VCTS SCT050CB SCT250
FM290000 VRB03KT P6SM SCT200
FM290600 00000KT 6SM BR FEW003
TEMPO 2909/2913 3SM BR BKN003
FM291400 VRB04KT P6SM SCT050

Example: see airport list